createdAt,value
2019-05-01T00:01:01.724Z,10.20
2019-05-01T00:03:43.566Z,10.20
2019-05-01T00:06:13.678Z,10.10
2019-05-01T00:08:42.438Z,10.10
2019-05-01T00:11:13.077Z,10.10
2019-05-01T00:13:41.557Z,10.10
2019-05-01T00:16:10.021Z,10.10
2019-05-01T00:18:38.511Z,10.00
2019-05-01T00:21:07.021Z,9.90
2019-05-01T00:23:36.370Z,9.90
2019-05-01T00:26:04.810Z,10.00
2019-05-01T00:28:33.225Z,9.90
2019-05-01T00:31:01.664Z,9.90
2019-05-01T00:33:30.211Z,9.90
2019-05-01T00:35:58.761Z,9.90
2019-05-01T00:38:27.208Z,9.80
2019-05-01T00:40:55.640Z,9.80
2019-05-01T00:43:24.205Z,9.80
2019-05-01T00:45:52.860Z,9.80
2019-05-01T00:48:21.539Z,9.70
2019-05-01T00:50:50.136Z,9.70
2019-05-01T00:53:18.635Z,9.60
2019-05-01T00:55:48.716Z,9.60
2019-05-01T00:58:24.871Z,9.70
2019-05-01T01:00:57.937Z,9.60
2019-05-01T01:03:26.337Z,9.60
2019-05-01T01:05:54.780Z,9.50
2019-05-01T01:08:23.199Z,9.50
2019-05-01T01:10:51.659Z,9.50
2019-05-01T01:13:20.088Z,9.40
2019-05-01T01:15:48.602Z,9.40
2019-05-01T01:18:17.040Z,9.40
2019-05-01T01:20:45.485Z,9.30
2019-05-01T01:23:14.060Z,9.30
2019-05-01T01:25:42.689Z,9.20
2019-05-01T01:28:11.345Z,9.30
2019-05-01T01:30:39.812Z,9.30
2019-05-01T01:33:08.446Z,9.30
2019-05-01T01:35:36.922Z,9.30
2019-05-01T01:38:05.362Z,9.20
2019-05-01T01:40:35.442Z,9.10
2019-05-01T01:43:22.116Z,9.10
2019-05-01T01:45:55.260Z,9.10
2019-05-01T01:48:23.760Z,9.10
2019-05-01T01:50:52.220Z,9.10
2019-05-01T01:53:22.031Z,9.00
2019-05-01T01:55:51.388Z,8.90
2019-05-01T01:58:21.374Z,8.90
2019-05-01T02:01:09.632Z,8.90
2019-05-01T02:03:40.168Z,8.90
2019-05-01T02:06:08.996Z,8.90
2019-05-01T02:08:37.736Z,8.90
2019-05-01T02:11:06.266Z,8.80
2019-05-01T02:13:34.703Z,8.80
2019-05-01T02:16:03.124Z,8.80
2019-05-01T02:18:31.580Z,8.80
2019-05-01T02:20:59.994Z,8.80
2019-05-01T02:23:28.443Z,8.70
2019-05-01T02:25:56.940Z,8.80
2019-05-01T02:28:39.676Z,8.70
2019-05-01T02:31:28.514Z,8.70
2019-05-01T02:33:51.001Z,8.70
2019-05-01T02:36:21.322Z,8.70
2019-05-01T02:38:51.090Z,8.80
2019-05-01T02:41:20.391Z,8.80
2019-05-01T02:43:51.700Z,8.70
2019-05-01T02:46:22.806Z,8.60
2019-05-01T02:49:26.033Z,8.60
2019-05-01T02:51:55.412Z,8.60
2019-05-01T02:54:24.957Z,8.60
2019-05-01T02:57:01.390Z,8.50
2019-05-01T02:59:32.449Z,8.50
2019-05-01T03:02:02.636Z,8.50
2019-05-01T03:04:33.172Z,8.50
2019-05-01T03:07:03.610Z,8.50
2019-05-01T03:09:33.291Z,8.60
2019-05-01T03:12:03.373Z,8.50
2019-05-01T03:14:34.997Z,8.50
2019-05-01T03:17:07.120Z,8.40
2019-05-01T03:19:37.195Z,8.30
2019-05-01T03:22:24.059Z,8.30
2019-05-01T03:24:52.592Z,8.30
2019-05-01T03:27:21.381Z,8.30
2019-05-01T03:29:49.875Z,8.30
2019-05-01T03:32:19.898Z,8.30
2019-05-01T03:34:52.642Z,8.20
2019-05-01T03:37:19.425Z,8.20
2019-05-01T03:39:47.874Z,8.20
2019-05-01T03:42:16.572Z,8.20
2019-05-01T03:44:45.166Z,8.20
2019-05-01T03:47:13.866Z,8.20
2019-05-01T03:49:42.307Z,8.10
2019-05-01T03:52:10.811Z,8.10
2019-05-01T03:54:39.493Z,8.10
2019-05-01T03:57:08.352Z,8.10
2019-05-01T03:59:37.339Z,8.10
2019-05-01T04:02:32.162Z,8.10
2019-05-01T04:04:47.902Z,8.20
2019-05-01T04:07:16.889Z,8.30
2019-05-01T04:09:45.410Z,8.30
2019-05-01T04:12:14.095Z,8.30
2019-05-01T04:14:42.589Z,8.40
2019-05-01T04:17:15.523Z,8.50
2019-05-01T04:19:44.034Z,8.60
2019-05-01T04:22:13.466Z,8.50
2019-05-01T04:24:42.355Z,8.70
2019-05-01T04:27:12.645Z,8.70
2019-05-01T04:29:42.894Z,8.80
2019-05-01T04:32:13.214Z,8.90
2019-05-01T04:34:49.656Z,8.90
2019-05-01T04:37:20.080Z,8.90
2019-05-01T04:39:48.519Z,8.90
2019-05-01T04:42:17.408Z,8.90
2019-05-01T04:44:46.066Z,9.00
2019-05-01T04:47:14.633Z,9.10
2019-05-01T04:49:43.748Z,9.00
2019-05-01T04:52:12.743Z,9.00
2019-05-01T04:54:41.590Z,9.10
2019-05-01T04:57:10.307Z,9.10
2019-05-01T04:59:39.411Z,9.10
2019-05-01T05:02:09.922Z,9.30
2019-05-01T05:04:38.912Z,9.10
2019-05-01T05:07:07.863Z,9.20
2019-05-01T05:09:41.131Z,9.20
2019-05-01T05:12:27.044Z,9.30
2019-05-01T05:14:59.675Z,9.30
2019-05-01T05:17:28.748Z,9.30
2019-05-01T05:19:57.157Z,9.30
2019-05-01T05:22:25.786Z,9.40
2019-05-01T05:24:54.444Z,9.30
2019-05-01T05:27:24.402Z,9.30
2019-05-01T05:29:55.980Z,9.50
2019-05-01T05:32:26.411Z,9.40
2019-05-01T05:34:57.598Z,9.50
2019-05-01T05:37:36.258Z,9.50
2019-05-01T05:40:05.927Z,9.50
2019-05-01T05:42:34.653Z,9.40
2019-05-01T05:45:04.708Z,9.50
2019-05-01T05:47:33.204Z,9.40
2019-05-01T05:50:01.903Z,9.30
2019-05-01T05:52:35.809Z,9.40
2019-05-01T05:55:07.472Z,9.50
2019-05-01T05:57:56.159Z,9.40
2019-05-01T06:00:34.192Z,9.70
2019-05-01T06:03:21.217Z,9.70
2019-05-01T06:06:04.584Z,9.70
2019-05-01T06:08:37.183Z,9.70
2019-05-01T06:11:19.720Z,9.60
2019-05-01T06:13:56.976Z,9.60
2019-05-01T06:16:46.913Z,9.50
2019-05-01T06:19:17.251Z,9.50
2019-05-01T06:22:04.903Z,9.70
2019-05-01T06:24:40.666Z,9.80
2019-05-01T06:27:13.680Z,9.80
2019-05-01T06:29:41.313Z,9.70
2019-05-01T06:32:09.821Z,9.80
2019-05-01T06:34:38.275Z,9.80
2019-05-01T06:37:06.857Z,9.70
2019-05-01T06:39:35.443Z,9.70
2019-05-01T06:42:09.945Z,9.70
2019-05-01T06:44:47.083Z,9.80
2019-05-01T06:47:20.293Z,9.70
2019-05-01T06:50:06.009Z,9.80
2019-05-01T06:52:37.616Z,9.80
2019-05-01T06:55:06.987Z,9.80
2019-05-01T06:57:38.338Z,9.80
2019-05-01T07:00:10.111Z,10.00
2019-05-01T07:02:39.441Z,10.00
2019-05-01T07:05:13.856Z,10.10
2019-05-01T07:07:39.338Z,10.00
2019-05-01T07:10:08.021Z,10.00
2019-05-01T07:12:37.292Z,10.00
2019-05-01T07:15:06.751Z,9.90
2019-05-01T07:17:35.815Z,10.10
2019-05-01T07:20:11.871Z,10.00
2019-05-01T07:22:42.268Z,10.00
2019-05-01T07:25:11.366Z,10.20
2019-05-01T07:27:39.952Z,10.10
2019-05-01T07:30:20.799Z,10.50
2019-05-01T07:32:49.816Z,10.60
2019-05-01T07:35:18.256Z,10.80
2019-05-01T07:37:47.022Z,10.60
2019-05-01T07:40:15.736Z,10.50
2019-05-01T07:42:48.298Z,10.50
2019-05-01T07:45:33.522Z,10.50
2019-05-01T07:48:06.884Z,10.60
2019-05-01T07:50:35.728Z,10.70
2019-05-01T07:53:04.461Z,10.70
2019-05-01T07:55:35.909Z,10.60
2019-05-01T07:58:10.195Z,10.70
2019-05-01T08:00:48.864Z,10.50
2019-05-01T08:03:17.406Z,10.70
2019-05-01T08:05:46.829Z,10.80
2019-05-01T08:08:15.448Z,10.70
2019-05-01T08:10:43.903Z,10.70
2019-05-01T08:13:12.327Z,10.60
2019-05-01T08:15:40.797Z,10.70
2019-05-01T08:18:13.876Z,10.70
2019-05-01T08:20:50.388Z,10.60
2019-05-01T08:23:17.096Z,10.60
2019-05-01T08:25:45.534Z,10.70
2019-05-01T08:28:19.382Z,10.70
2019-05-01T08:31:06.056Z,10.70
2019-05-01T08:33:55.124Z,10.50
2019-05-01T08:36:23.706Z,10.60
2019-05-01T08:38:52.156Z,10.60
2019-05-01T08:41:20.670Z,10.50
2019-05-01T08:43:54.065Z,10.50
2019-05-01T08:46:30.232Z,10.60
2019-05-01T08:49:15.882Z,10.80
2019-05-01T08:51:44.314Z,11.00
2019-05-01T08:54:12.811Z,10.80
2019-05-01T08:56:43.662Z,10.70
2019-05-01T08:59:12.192Z,10.70
2019-05-01T09:01:40.728Z,10.90
2019-05-01T09:04:13.069Z,11.10
2019-05-01T09:06:43.956Z,11.10
2019-05-01T09:09:10.088Z,11.00
2019-05-01T09:11:38.680Z,11.10
2019-05-01T09:14:07.231Z,11.20
2019-05-01T09:16:35.722Z,11.20
2019-05-01T09:19:04.544Z,11.10
2019-05-01T09:21:33.236Z,11.30
2019-05-01T09:24:03.191Z,11.40
2019-05-01T09:26:45.426Z,11.40
2019-05-01T09:29:18.832Z,11.30
2019-05-01T09:31:48.195Z,11.30
2019-05-01T09:34:19.243Z,12.00
2019-05-01T09:36:47.216Z,12.20
2019-05-01T09:39:16.052Z,12.10
2019-05-01T09:41:47.426Z,12.00
2019-05-01T09:44:14.888Z,12.60
2019-05-01T09:46:44.157Z,12.40
2019-05-01T09:49:14.213Z,12.10
2019-05-01T09:51:49.329Z,12.10
2019-05-01T09:54:19.733Z,12.40
2019-05-01T09:56:52.866Z,12.10
2019-05-01T09:59:22.528Z,12.20
2019-05-01T10:01:51.032Z,12.00
2019-05-01T10:04:30.041Z,12.00
2019-05-01T10:06:55.548Z,11.80
2019-05-01T10:09:26.598Z,11.90
2019-05-01T10:11:54.275Z,11.90
2019-05-01T10:14:22.916Z,11.80
2019-05-01T10:16:51.446Z,12.00
2019-05-01T10:19:20.002Z,11.90
2019-05-01T10:21:48.459Z,11.90
2019-05-01T10:24:16.896Z,11.90
2019-05-01T10:26:47.040Z,12.00
2019-05-01T10:29:27.589Z,12.30
2019-05-01T10:32:03.509Z,12.30
2019-05-01T10:34:51.827Z,12.20
2019-05-01T10:37:20.292Z,12.10
2019-05-01T10:39:50.201Z,12.40
2019-05-01T10:42:18.954Z,12.50
2019-05-01T10:44:47.835Z,12.60
2019-05-01T10:47:22.764Z,13.00
2019-05-01T10:49:46.621Z,12.70
2019-05-01T10:52:15.104Z,12.80
2019-05-01T10:54:46.418Z,12.60
2019-05-01T10:57:13.712Z,12.90
2019-05-01T10:59:42.206Z,12.60
2019-05-01T11:02:12.270Z,12.90
2019-05-01T11:04:40.747Z,13.10
2019-05-01T11:07:09.221Z,13.00
2019-05-01T11:09:37.668Z,13.10
2019-05-01T11:12:06.188Z,13.00
2019-05-01T11:14:34.638Z,12.70
2019-05-01T11:17:03.068Z,12.60
2019-05-01T11:19:31.525Z,12.70
2019-05-01T11:22:02.710Z,13.20
2019-05-01T11:24:31.338Z,13.50
2019-05-01T11:26:59.806Z,13.60
2019-05-01T11:29:28.341Z,13.30
2019-05-01T11:32:13.822Z,13.50
2019-05-01T11:34:43.957Z,13.30
2019-05-01T11:37:30.347Z,13.20
2019-05-01T11:40:06.941Z,13.40
2019-05-01T11:42:35.447Z,13.50
2019-05-01T11:45:11.355Z,13.70
2019-05-01T11:47:39.909Z,13.90
2019-05-01T11:50:08.789Z,14.00
2019-05-01T11:52:37.262Z,14.40
2019-05-01T11:55:06.528Z,14.70
2019-05-01T11:57:35.078Z,14.80
2019-05-01T12:00:05.149Z,14.90
2019-05-01T12:02:33.623Z,14.90
2019-05-01T12:05:02.032Z,15.40
2019-05-01T12:07:30.497Z,15.50
2019-05-01T12:09:59.225Z,15.40
2019-05-01T12:12:29.345Z,15.50
2019-05-01T12:14:57.794Z,15.80
2019-05-01T12:17:30.938Z,16.10
2019-05-01T12:19:59.418Z,16.20
2019-05-01T12:22:30.211Z,16.10
2019-05-01T12:24:58.694Z,16.00
2019-05-01T12:27:27.168Z,16.30
2019-05-01T12:29:55.674Z,16.30
2019-05-01T12:32:24.097Z,16.00
2019-05-01T12:34:52.530Z,16.20
2019-05-01T12:37:25.114Z,16.00
2019-05-01T12:39:53.572Z,15.80
2019-05-01T12:42:26.412Z,15.60
2019-05-01T12:44:54.910Z,16.40
2019-05-01T12:47:39.032Z,16.20
2019-05-01T12:50:12.707Z,16.30
2019-05-01T12:52:52.016Z,16.60
2019-05-01T12:55:25.672Z,16.60
2019-05-01T12:57:55.364Z,16.20
2019-05-01T13:00:28.839Z,16.00
2019-05-01T13:03:01.412Z,15.70
2019-05-01T13:05:29.983Z,15.40
2019-05-01T13:07:58.931Z,15.40
2019-05-01T13:10:30.272Z,15.20
2019-05-01T13:13:03.234Z,15.50
2019-05-01T13:15:33.483Z,15.60
2019-05-01T13:18:02.390Z,15.60
2019-05-01T13:20:31.024Z,15.40
2019-05-01T13:23:02.962Z,15.10
2019-05-01T13:25:36.393Z,15.20
2019-05-01T13:28:10.910Z,15.00
2019-05-01T13:30:42.088Z,15.10
2019-05-01T13:33:10.860Z,14.90
2019-05-01T13:35:40.049Z,15.10
2019-05-01T13:38:14.514Z,15.10
2019-05-01T13:40:46.315Z,15.00
2019-05-01T13:43:19.495Z,14.90
2019-05-01T13:45:45.031Z,14.80
2019-05-01T13:48:14.984Z,14.80
2019-05-01T13:50:44.938Z,14.60
2019-05-01T13:53:13.367Z,14.70
2019-05-01T13:55:42.742Z,14.90
2019-05-01T13:58:13.546Z,14.90
2019-05-01T14:00:57.920Z,14.90
2019-05-01T14:03:26.654Z,15.10
2019-05-01T14:05:57.056Z,15.00
2019-05-01T14:08:28.117Z,15.10
2019-05-01T14:10:55.702Z,15.30
2019-05-01T14:13:25.204Z,15.50
2019-05-01T14:15:54.492Z,15.60
2019-05-01T14:18:22.994Z,15.20
2019-05-01T14:20:57.254Z,15.30
2019-05-01T14:23:45.546Z,15.40
2019-05-01T14:26:16.213Z,15.10
2019-05-01T14:28:48.510Z,15.00
2019-05-01T14:31:16.990Z,15.00
2019-05-01T14:33:45.432Z,15.00
2019-05-01T14:36:13.884Z,15.10
2019-05-01T14:38:42.436Z,15.10
2019-05-01T14:41:11.460Z,15.10
2019-05-01T14:43:39.982Z,15.20
2019-05-01T14:46:08.448Z,15.20
2019-05-01T14:48:36.900Z,15.20
2019-05-01T14:51:05.340Z,15.20
2019-05-01T14:53:33.784Z,15.10
2019-05-01T14:56:02.241Z,15.20
2019-05-01T14:58:30.674Z,15.10
2019-05-01T15:00:59.201Z,15.20
2019-05-01T15:03:27.744Z,15.20
2019-05-01T15:05:56.274Z,15.10
2019-05-01T15:08:25.760Z,15.00
2019-05-01T15:10:54.228Z,15.00
2019-05-01T15:13:32.650Z,15.00
2019-05-01T15:16:04.328Z,15.00
2019-05-01T15:18:43.473Z,15.00
2019-05-01T15:21:11.924Z,15.00
2019-05-01T15:23:52.892Z,15.10
2019-05-01T15:26:10.530Z,15.00
2019-05-01T15:28:39.004Z,15.00
2019-05-01T15:31:07.466Z,15.20
2019-05-01T15:33:35.994Z,15.30
2019-05-01T15:36:04.589Z,15.30
2019-05-01T15:38:33.025Z,15.50
2019-05-01T15:41:03.110Z,15.50
2019-05-01T15:43:33.248Z,15.50
2019-05-01T15:46:01.852Z,15.30
2019-05-01T15:48:30.405Z,15.20
2019-05-01T15:50:58.868Z,15.20
2019-05-01T15:53:27.287Z,15.10
2019-05-01T15:55:55.714Z,15.20
2019-05-01T15:58:24.173Z,15.00
2019-05-01T16:00:52.601Z,15.10
2019-05-01T16:03:21.070Z,15.10
2019-05-01T16:05:49.521Z,15.20
2019-05-01T16:08:18.056Z,15.10
2019-05-01T16:11:00.067Z,15.30
2019-05-01T16:13:28.536Z,15.30
2019-05-01T16:15:57.087Z,15.40
2019-05-01T16:18:25.540Z,15.20
2019-05-01T16:20:54.026Z,15.10
2019-05-01T16:23:22.522Z,15.10
2019-05-01T16:25:50.950Z,15.10
2019-05-01T16:28:19.384Z,15.10
2019-05-01T16:30:47.843Z,15.20
2019-05-01T16:33:16.309Z,15.10
2019-05-01T16:35:44.728Z,15.10
2019-05-01T16:38:22.701Z,15.10
2019-05-01T16:40:47.181Z,15.00
2019-05-01T16:43:15.613Z,15.20
2019-05-01T16:45:44.159Z,15.10
2019-05-01T16:48:12.599Z,15.10
2019-05-01T16:50:41.023Z,15.00
2019-05-01T16:53:09.691Z,14.90
2019-05-01T16:55:38.157Z,14.90
2019-05-01T16:58:08.283Z,14.80
2019-05-01T17:00:57.101Z,14.80
2019-05-01T17:03:28.129Z,14.80
2019-05-01T17:06:14.204Z,14.80
2019-05-01T17:08:46.928Z,14.70
2019-05-01T17:11:16.021Z,14.70
2019-05-01T17:13:44.485Z,14.70
2019-05-01T17:16:13.178Z,14.60
2019-05-01T17:18:41.658Z,14.60
2019-05-01T17:21:10.104Z,14.60
2019-05-01T17:23:38.636Z,14.60
2019-05-01T17:26:07.141Z,14.60
2019-05-01T17:28:35.601Z,14.60
2019-05-01T17:31:04.219Z,14.70
2019-05-01T17:33:32.768Z,14.60
2019-05-01T17:36:01.327Z,14.60
2019-05-01T17:38:29.877Z,14.50
2019-05-01T17:40:58.300Z,14.50
2019-05-01T17:43:26.834Z,14.50
2019-05-01T17:45:55.255Z,14.40
2019-05-01T17:48:23.722Z,14.40
2019-05-01T17:50:55.125Z,14.40
2019-05-01T17:53:22.333Z,14.30
2019-05-01T17:55:50.787Z,14.20
2019-05-01T17:58:19.227Z,14.20
2019-05-01T18:00:54.833Z,14.10
2019-05-01T18:03:33.922Z,13.90
2019-05-01T18:06:07.102Z,13.90
2019-05-01T18:08:35.513Z,13.80
2019-05-01T18:11:04.415Z,13.70
2019-05-01T18:13:34.376Z,13.60
2019-05-01T18:16:02.873Z,13.50
2019-05-01T18:18:31.590Z,13.50
2019-05-01T18:21:00.069Z,13.60
2019-05-01T18:23:47.614Z,13.60
2019-05-01T18:26:34.563Z,13.50
2019-05-01T18:29:14.692Z,13.50
2019-05-01T18:31:43.548Z,13.30
2019-05-01T18:34:11.988Z,13.20
2019-05-01T18:36:47.952Z,13.10
2019-05-01T18:39:25.396Z,13.00
2019-05-01T18:41:53.634Z,13.00
2019-05-01T18:44:22.235Z,13.00
2019-05-01T18:46:51.001Z,12.90
2019-05-01T18:49:19.501Z,12.90
2019-05-01T18:51:48.038Z,12.80
2019-05-01T18:54:16.586Z,12.70
2019-05-01T18:56:45.020Z,13.00
2019-05-01T18:59:13.446Z,13.40
2019-05-01T19:01:43.827Z,13.60
2019-05-01T19:04:12.287Z,13.60
2019-05-01T19:06:42.536Z,13.70
2019-05-01T19:09:15.163Z,13.70
2019-05-01T19:11:41.451Z,13.60
2019-05-01T19:14:10.651Z,13.50
2019-05-01T19:16:40.051Z,13.20
2019-05-01T19:19:09.290Z,12.90
2019-05-01T19:21:41.735Z,12.70
2019-05-01T19:24:08.452Z,12.60
2019-05-01T19:26:38.257Z,12.40
2019-05-01T19:29:07.390Z,12.30
2019-05-01T19:31:36.155Z,12.20
2019-05-01T19:34:04.864Z,12.20
2019-05-01T19:36:33.442Z,12.10
2019-05-01T19:39:01.956Z,12.10
2019-05-01T19:41:30.410Z,12.00
2019-05-01T19:43:58.861Z,12.00
2019-05-01T19:46:27.438Z,11.90
2019-05-01T19:48:55.900Z,11.90
2019-05-01T19:51:25.971Z,11.80
2019-05-01T19:53:54.658Z,11.80
2019-05-01T19:56:23.208Z,11.80
2019-05-01T19:58:51.653Z,11.80
2019-05-01T20:01:20.231Z,11.70
2019-05-01T20:03:48.684Z,11.60
2019-05-01T20:06:17.210Z,11.60
2019-05-01T20:08:45.657Z,11.50
2019-05-01T20:11:14.416Z,11.50
2019-05-01T20:13:42.966Z,11.50
2019-05-01T20:16:11.562Z,11.50
2019-05-01T20:18:40.149Z,11.40
2019-05-01T20:21:08.869Z,11.30
2019-05-01T20:23:37.344Z,11.30
2019-05-01T20:26:05.855Z,11.20
2019-05-01T20:28:34.286Z,11.20
2019-05-01T20:31:02.796Z,11.20
2019-05-01T20:33:33.293Z,11.20
2019-05-01T20:36:05.175Z,11.20
2019-05-01T20:38:31.683Z,11.20
2019-05-01T20:41:00.389Z,11.20
2019-05-01T20:43:29.178Z,11.10
2019-05-01T20:45:57.800Z,11.10
2019-05-01T20:48:26.487Z,11.00
2019-05-01T20:50:55.017Z,11.00
2019-05-01T20:53:23.508Z,10.90
2019-05-01T20:55:53.634Z,10.90
2019-05-01T20:58:22.436Z,10.90
2019-05-01T21:00:53.565Z,10.90
2019-05-01T21:03:22.789Z,10.90
2019-05-01T21:06:02.837Z,10.80
2019-05-01T21:08:34.342Z,10.80
2019-05-01T21:11:05.929Z,10.80
2019-05-01T21:13:35.364Z,10.80
2019-05-01T21:16:04.222Z,10.80
2019-05-01T21:18:33.005Z,10.70
2019-05-01T21:21:03.503Z,10.70
2019-05-01T21:23:33.419Z,10.70
2019-05-01T21:26:03.742Z,10.70
2019-05-01T21:28:33.942Z,10.70
2019-05-01T21:31:03.833Z,10.70
2019-05-01T21:33:33.876Z,10.70
2019-05-01T21:36:04.772Z,10.60
2019-05-01T21:38:33.050Z,10.60
2019-05-01T21:41:02.770Z,10.60
2019-05-01T21:43:33.125Z,10.60
2019-05-01T21:46:03.789Z,10.60
2019-05-01T21:48:33.394Z,10.50
2019-05-01T21:51:03.438Z,10.50
2019-05-01T21:53:32.788Z,10.50
2019-05-01T21:56:02.311Z,10.50
2019-05-01T21:58:33.358Z,10.50
2019-05-01T22:01:02.695Z,10.40
2019-05-01T22:03:31.334Z,10.40
2019-05-01T22:05:59.791Z,10.40
2019-05-01T22:08:28.477Z,10.50
2019-05-01T22:10:57.705Z,10.60
2019-05-01T22:13:27.410Z,10.70
2019-05-01T22:16:00.544Z,10.70
2019-05-01T22:18:30.610Z,10.70
2019-05-01T22:21:00.709Z,10.70
2019-05-01T22:23:31.347Z,10.70
2019-05-01T22:26:01.531Z,10.80
2019-05-01T22:28:34.567Z,10.80
2019-05-01T22:31:23.408Z,10.70
2019-05-01T22:33:53.546Z,10.70
2019-05-01T22:36:21.987Z,10.60
2019-05-01T22:38:50.456Z,10.50
2019-05-01T22:41:18.891Z,10.50
2019-05-01T22:43:47.336Z,10.60
2019-05-01T22:46:17.443Z,10.60
2019-05-01T22:48:45.877Z,10.60
2019-05-01T22:51:16.036Z,10.60
2019-05-01T22:53:46.139Z,10.70
2019-05-01T22:56:14.596Z,10.70
2019-05-01T22:58:43.018Z,10.60
2019-05-01T23:01:13.276Z,10.60
2019-05-01T23:03:49.360Z,10.50
2019-05-01T23:06:18.117Z,10.50
2019-05-01T23:08:46.664Z,10.50
2019-05-01T23:11:20.174Z,10.50
2019-05-01T23:13:45.596Z,10.40
2019-05-01T23:16:14.666Z,10.40
2019-05-01T23:18:47.050Z,10.30
2019-05-01T23:21:14.571Z,10.20
2019-05-01T23:23:45.057Z,10.20
2019-05-01T23:26:16.568Z,10.10
2019-05-01T23:28:43.835Z,10.10
2019-05-01T23:31:12.589Z,10.00
2019-05-01T23:33:41.037Z,9.90
2019-05-01T23:36:22.670Z,9.90
2019-05-01T23:38:39.605Z,9.90
2019-05-01T23:41:08.124Z,9.90
2019-05-01T23:43:36.564Z,9.70
2019-05-01T23:46:05.351Z,9.80
2019-05-01T23:48:33.849Z,9.70
2019-05-01T23:51:02.346Z,9.70
2019-05-01T23:53:30.804Z,9.60
2019-05-01T23:56:00.223Z,9.50
2019-05-01T23:58:29.391Z,9.50
